createdAt,value
2022-09-06T00:00:27.538Z,87.80
2022-09-06T00:02:55.070Z,87.90
2022-09-06T00:05:22.609Z,87.90
2022-09-06T00:07:49.940Z,88.10
2022-09-06T00:10:17.350Z,88.20
2022-09-06T00:12:44.705Z,88.20
2022-09-06T00:15:12.030Z,88.50
2022-09-06T00:17:39.387Z,88.60
2022-09-06T00:20:09.337Z,89.00
2022-09-06T00:22:37.927Z,88.90
2022-09-06T00:25:06.543Z,89.10
2022-09-06T00:27:34.879Z,89.10
2022-09-06T00:30:04.594Z,89.20
2022-09-06T00:32:32.878Z,89.10
2022-09-06T00:35:00.189Z,89.10
2022-09-06T00:37:27.516Z,89.10
2022-09-06T00:39:54.983Z,88.90
2022-09-06T00:42:22.450Z,88.50
2022-09-06T00:44:50.528Z,88.00
2022-09-06T00:47:18.228Z,87.90
2022-09-06T00:49:50.762Z,87.60
2022-09-06T00:52:19.948Z,87.50
2022-09-06T00:54:49.103Z,87.50
2022-09-06T00:57:17.384Z,87.60
2022-09-06T00:59:46.666Z,87.60
2022-09-06T01:02:14.497Z,87.60
2022-09-06T01:04:44.601Z,87.70
2022-09-06T01:07:47.655Z,87.80
2022-09-06T01:10:30.611Z,87.70
2022-09-06T01:13:09.665Z,87.80
2022-09-06T01:16:00.936Z,87.90
2022-09-06T01:19:01.356Z,88.00
2022-09-06T01:22:07.913Z,88.20
2022-09-06T01:25:18.975Z,88.00
2022-09-06T01:27:58.388Z,88.00
2022-09-06T01:30:25.930Z,87.90
2022-09-06T01:33:34.191Z,87.90
2022-09-06T01:36:04.480Z,87.90
2022-09-06T01:38:31.973Z,87.90
2022-09-06T01:40:59.682Z,88.10
2022-09-06T01:43:33.678Z,88.00
2022-09-06T01:46:30.154Z,88.20
2022-09-06T01:49:23.867Z,88.30
2022-09-06T01:52:12.774Z,88.50
2022-09-06T01:54:51.722Z,88.70
2022-09-06T01:57:43.660Z,88.90
2022-09-06T02:00:14.870Z,89.50
2022-09-06T02:03:10.305Z,90.00
2022-09-06T02:05:43.830Z,90.20
2022-09-06T02:08:16.113Z,90.30
2022-09-06T02:10:50.628Z,90.40
2022-09-06T02:13:20.147Z,90.40
2022-09-06T02:15:56.192Z,90.40
2022-09-06T02:18:30.354Z,90.50
2022-09-06T02:20:59.482Z,90.50
2022-09-06T02:23:35.738Z,90.50
2022-09-06T02:26:15.910Z,90.70
2022-09-06T02:28:43.506Z,90.90
2022-09-06T02:31:16.872Z,90.90
2022-09-06T02:33:46.266Z,90.90
2022-09-06T02:36:15.853Z,91.00
2022-09-06T02:38:44.946Z,91.10
2022-09-06T02:41:16.716Z,91.30
2022-09-06T02:43:44.607Z,91.40
2022-09-06T02:46:12.581Z,91.40
2022-09-06T02:48:39.994Z,91.40
2022-09-06T02:51:09.601Z,91.50
2022-09-06T02:53:36.984Z,91.50
2022-09-06T02:56:04.784Z,91.70
2022-09-06T02:58:32.132Z,91.90
2022-09-06T03:00:59.583Z,91.90
2022-09-06T03:03:28.047Z,92.10
2022-09-06T03:05:55.985Z,92.30
2022-09-06T03:08:33.438Z,92.40
2022-09-06T03:11:01.133Z,92.50
2022-09-06T03:13:28.859Z,92.60
2022-09-06T03:15:58.567Z,92.60
2022-09-06T03:18:27.916Z,92.60
2022-09-06T03:20:56.765Z,92.80
2022-09-06T03:23:27.669Z,92.90
2022-09-06T03:25:55.911Z,93.00
2022-09-06T03:28:23.894Z,93.00
2022-09-06T03:30:52.600Z,93.00
2022-09-06T03:33:21.206Z,93.00
2022-09-06T03:35:53.527Z,92.80
2022-09-06T03:38:21.928Z,92.60
2022-09-06T03:40:50.092Z,92.60
2022-09-06T03:43:18.674Z,92.60
2022-09-06T03:45:48.297Z,92.60
2022-09-06T03:48:16.746Z,92.70
2022-09-06T03:50:54.350Z,92.80
2022-09-06T03:53:23.627Z,92.90
2022-09-06T03:55:53.296Z,93.10
2022-09-06T03:58:23.100Z,93.20
2022-09-06T04:01:06.577Z,93.20
2022-09-06T04:03:35.562Z,93.70
2022-09-06T04:06:03.733Z,93.40
2022-09-06T04:08:31.907Z,93.60
2022-09-06T04:11:00.423Z,93.50
2022-09-06T04:13:29.031Z,93.30
2022-09-06T04:15:56.355Z,93.00
2022-09-06T04:18:24.558Z,93.00
2022-09-06T04:20:54.433Z,93.20
2022-09-06T04:23:23.303Z,93.30
2022-09-06T04:25:53.178Z,93.30
2022-09-06T04:28:22.113Z,93.50
2022-09-06T04:31:01.981Z,93.50
2022-09-06T04:33:33.405Z,93.70
2022-09-06T04:36:02.375Z,93.70
2022-09-06T04:38:31.420Z,93.80
2022-09-06T04:40:58.754Z,93.90
2022-09-06T04:43:26.347Z,94.10
2022-09-06T04:45:53.685Z,94.10
2022-09-06T04:48:21.246Z,94.10
2022-09-06T04:50:48.631Z,94.30
2022-09-06T04:53:16.251Z,94.30
2022-09-06T04:55:43.763Z,94.50
2022-09-06T04:58:11.210Z,94.50
2022-09-06T05:00:38.961Z,94.50
2022-09-06T05:03:06.347Z,94.50
2022-09-06T05:05:34.104Z,94.40
2022-09-06T05:08:01.725Z,94.20
2022-09-06T05:10:29.016Z,93.90
2022-09-06T05:12:56.634Z,93.60
2022-09-06T05:15:24.269Z,93.30
2022-09-06T05:17:51.865Z,93.30
2022-09-06T05:20:19.761Z,93.10
2022-09-06T05:22:56.570Z,93.00
2022-09-06T05:25:23.989Z,92.80
2022-09-06T05:27:51.272Z,92.60
2022-09-06T05:30:19.796Z,92.30
2022-09-06T05:32:47.155Z,92.20
2022-09-06T05:35:14.855Z,92.10
2022-09-06T05:37:42.175Z,92.00
2022-09-06T05:40:10.100Z,91.50
2022-09-06T05:42:37.537Z,91.50
2022-09-06T05:45:06.891Z,91.40
2022-09-06T05:47:35.451Z,91.40
2022-09-06T05:50:03.690Z,91.00
2022-09-06T05:52:31.153Z,90.60
2022-09-06T05:55:02.945Z,90.40
2022-09-06T05:57:30.235Z,90.60
2022-09-06T05:59:57.887Z,90.40
2022-09-06T06:02:25.713Z,90.00
2022-09-06T06:04:54.544Z,88.90
2022-09-06T06:07:22.040Z,88.60
2022-09-06T06:09:49.460Z,87.80
2022-09-06T06:12:16.891Z,87.60
2022-09-06T06:14:44.302Z,87.00
2022-09-06T06:17:11.598Z,86.50
2022-09-06T06:19:40.263Z,85.80
2022-09-06T06:22:07.699Z,85.10
2022-09-06T06:24:35.333Z,84.60
2022-09-06T06:27:02.791Z,83.80
2022-09-06T06:29:30.182Z,83.10
2022-09-06T06:31:57.703Z,82.40
2022-09-06T06:34:25.057Z,81.90
2022-09-06T06:36:52.772Z,81.20
2022-09-06T06:39:20.147Z,80.90
2022-09-06T06:41:49.206Z,80.30
2022-09-06T06:44:32.449Z,80.30
2022-09-06T06:47:01.981Z,80.10
2022-09-06T06:49:29.976Z,80.00
2022-09-06T06:51:57.473Z,79.70
2022-09-06T06:54:24.825Z,79.10
2022-09-06T06:56:52.162Z,78.90
2022-09-06T06:59:20.677Z,78.50
2022-09-06T07:01:49.831Z,78.30
2022-09-06T07:04:17.481Z,78.00
2022-09-06T07:12:30.719Z,77.30
2022-09-06T07:14:58.378Z,77.00
2022-09-06T07:17:25.948Z,76.60
2022-09-06T07:22:41.232Z,76.30
2022-09-06T07:25:09.737Z,75.70
2022-09-06T07:27:52.372Z,75.60
2022-09-06T07:30:20.389Z,74.90
2022-09-06T07:32:48.207Z,74.70
2022-09-06T07:35:15.865Z,74.80
2022-09-06T07:37:43.173Z,74.60
2022-09-06T07:40:11.069Z,74.40
2022-09-06T07:42:38.514Z,74.10
2022-09-06T07:45:06.360Z,74.10
2022-09-06T07:53:14.007Z,73.10
2022-09-06T07:55:45.227Z,72.80
2022-09-06T07:58:12.633Z,72.50
2022-09-06T08:00:41.208Z,72.50
2022-09-06T08:03:08.986Z,72.20
2022-09-06T08:11:13.412Z,71.20
2022-09-06T08:13:41.667Z,71.20
2022-09-06T08:16:11.539Z,70.30
2022-09-06T08:18:39.459Z,69.80
2022-09-06T08:21:12.815Z,69.50
2022-09-06T08:23:45.105Z,69.20
2022-09-06T08:26:12.600Z,68.90
2022-09-06T08:28:39.953Z,68.80
2022-09-06T08:31:12.390Z,68.80
2022-09-06T08:33:55.954Z,68.60
2022-09-06T08:36:23.938Z,68.30
2022-09-06T08:38:51.203Z,67.80
2022-09-06T08:41:27.597Z,67.50
2022-09-06T08:47:00.255Z,67.20
2022-09-06T08:49:34.512Z,66.90
2022-09-06T08:52:20.542Z,66.80
2022-09-06T08:54:56.546Z,67.00
2022-09-06T08:57:55.164Z,66.00
2022-09-06T09:00:23.184Z,65.60
2022-09-06T09:03:07.931Z,65.40
2022-09-06T09:05:40.624Z,65.30
2022-09-06T09:08:29.565Z,64.50
2022-09-06T09:11:02.321Z,64.50
2022-09-06T09:14:10.339Z,64.60
2022-09-06T09:16:37.756Z,65.00
2022-09-06T09:19:06.145Z,64.60
2022-09-06T09:21:37.181Z,64.00
2022-09-06T09:24:08.012Z,63.50
2022-09-06T09:27:05.763Z,63.30
2022-09-06T09:29:36.257Z,62.90
2022-09-06T09:32:03.911Z,62.70
2022-09-06T09:34:34.045Z,62.50
2022-09-06T09:40:06.885Z,61.70
2022-09-06T09:42:36.760Z,62.50
2022-09-06T09:45:25.629Z,62.50
2022-09-06T09:47:53.485Z,62.40
2022-09-06T09:50:33.429Z,62.30
2022-09-06T09:53:12.040Z,62.70
2022-09-06T09:55:39.967Z,62.60
2022-09-06T09:58:31.569Z,62.90
2022-09-06T10:01:21.827Z,62.80
2022-09-06T10:09:39.548Z,61.60
2022-09-06T10:12:07.407Z,61.10
2022-09-06T10:14:46.904Z,60.90
2022-09-06T10:17:50.229Z,60.60
2022-09-06T10:20:18.112Z,60.60
2022-09-06T10:22:56.008Z,60.20
2022-09-06T10:25:51.429Z,60.00
2022-09-06T10:28:29.603Z,59.80
2022-09-06T10:31:06.054Z,60.20
2022-09-06T10:33:54.323Z,60.00
2022-09-06T10:36:37.839Z,60.00
2022-09-06T10:39:37.302Z,59.90
2022-09-06T10:42:18.858Z,59.70
2022-09-06T10:45:02.977Z,59.90
2022-09-06T10:47:54.617Z,59.50
2022-09-06T10:50:28.910Z,59.10
2022-09-06T10:53:05.047Z,59.00
2022-09-06T10:55:32.870Z,58.70
2022-09-06T10:58:20.626Z,59.30
2022-09-06T11:00:50.370Z,60.60
2022-09-06T11:06:09.881Z,58.70
2022-09-06T11:08:46.514Z,58.60
2022-09-06T11:11:21.533Z,58.60
2022-09-06T11:13:49.191Z,58.70
2022-09-06T11:16:28.909Z,58.70
2022-09-06T11:19:04.696Z,58.60
2022-09-06T11:21:40.598Z,58.30
2022-09-06T11:24:15.667Z,58.00
2022-09-06T11:27:02.640Z,57.30
2022-09-06T11:29:32.279Z,57.10
2022-09-06T11:32:18.105Z,57.30
2022-09-06T11:34:57.712Z,57.50
2022-09-06T11:37:32.977Z,57.40
2022-09-06T11:40:27.175Z,57.30
2022-09-06T11:42:55.616Z,56.20
2022-09-06T11:45:52.457Z,56.20
2022-09-06T11:48:26.743Z,56.80
2022-09-06T11:50:54.059Z,56.20
2022-09-06T11:53:24.902Z,56.10
2022-09-06T11:56:12.255Z,54.80
2022-09-06T11:58:49.737Z,53.90
2022-09-06T12:01:18.816Z,54.00
2022-09-06T12:04:05.912Z,55.10
2022-09-06T12:06:40.760Z,55.20
2022-09-06T12:09:28.272Z,55.60
2022-09-06T12:11:56.849Z,55.50
2022-09-06T12:14:27.127Z,54.90
2022-09-06T12:17:00.712Z,55.10
2022-09-06T12:20:11.208Z,54.90
2022-09-06T12:22:41.331Z,54.50
2022-09-06T12:25:21.088Z,54.70
2022-09-06T12:27:57.848Z,54.40
2022-09-06T12:30:37.628Z,54.50
2022-09-06T12:33:16.771Z,54.50
2022-09-06T12:35:59.935Z,54.60
2022-09-06T12:38:28.732Z,54.10
2022-09-06T12:40:59.085Z,54.10
2022-09-06T12:43:27.227Z,53.70
2022-09-06T12:45:54.660Z,54.50
2022-09-06T12:48:41.217Z,54.20
2022-09-06T12:51:20.235Z,53.60
2022-09-06T12:54:01.379Z,53.30
2022-09-06T12:56:33.943Z,52.70
2022-09-06T12:59:14.100Z,52.60
2022-09-06T13:01:47.963Z,52.30
2022-09-06T13:04:42.909Z,52.90
2022-09-06T13:07:14.383Z,51.40
2022-09-06T13:09:44.929Z,51.60
2022-09-06T13:12:26.341Z,51.60
2022-09-06T13:15:00.297Z,51.30
2022-09-06T13:17:29.985Z,51.20
2022-09-06T13:20:02.424Z,50.80
2022-09-06T13:22:47.991Z,50.60
2022-09-06T13:25:20.487Z,51.30
2022-09-06T13:27:51.069Z,51.70
2022-09-06T13:30:30.549Z,53.50
2022-09-06T13:32:58.098Z,53.10
2022-09-06T13:35:29.401Z,52.80
2022-09-06T13:38:18.892Z,53.00
2022-09-06T13:41:10.641Z,53.80
2022-09-06T13:43:45.831Z,53.70
2022-09-06T13:46:13.650Z,54.20
2022-09-06T13:48:42.986Z,54.30
2022-09-06T13:51:10.548Z,54.10
2022-09-06T13:53:37.828Z,54.90
2022-09-06T13:56:08.866Z,54.90
2022-09-06T13:58:37.032Z,55.10
2022-09-06T14:01:10.469Z,54.20
2022-09-06T14:03:40.981Z,53.50
2022-09-06T14:06:09.242Z,53.50
2022-09-06T14:08:56.262Z,53.10
2022-09-06T14:11:25.592Z,53.20
2022-09-06T14:13:52.962Z,53.50
2022-09-06T14:16:20.667Z,54.80
2022-09-06T14:18:48.104Z,54.10
2022-09-06T14:21:15.569Z,53.90
2022-09-06T14:23:42.864Z,53.30
2022-09-06T14:26:10.576Z,52.90
2022-09-06T14:28:37.859Z,53.00
2022-09-06T14:31:22.308Z,53.20
2022-09-06T14:33:49.671Z,54.00
2022-09-06T14:36:19.966Z,53.20
2022-09-06T14:38:48.083Z,53.80
2022-09-06T14:41:17.671Z,53.20
2022-09-06T14:43:52.750Z,54.10
2022-09-06T14:46:22.037Z,53.40
2022-09-06T14:48:56.220Z,53.40
2022-09-06T14:51:24.114Z,54.30
2022-09-06T14:53:54.802Z,53.60
2022-09-06T14:56:23.044Z,52.90
2022-09-06T14:58:50.521Z,52.20
2022-09-06T15:01:23.327Z,53.30
2022-09-06T15:04:02.953Z,54.00
2022-09-06T15:06:33.098Z,53.80
2022-09-06T15:09:00.586Z,53.20
2022-09-06T15:11:34.408Z,52.90
2022-09-06T15:14:04.214Z,53.30
2022-09-06T15:16:32.837Z,53.20
2022-09-06T15:19:01.175Z,53.00
2022-09-06T15:21:28.873Z,52.90
2022-09-06T15:23:57.002Z,52.40
2022-09-06T15:26:24.365Z,51.90
2022-09-06T15:28:52.290Z,52.20
2022-09-06T15:31:20.317Z,53.10
2022-09-06T15:33:48.880Z,53.40
2022-09-06T15:36:16.854Z,53.30
2022-09-06T15:38:49.681Z,53.50
2022-09-06T15:41:20.239Z,53.20
2022-09-06T15:43:48.992Z,53.10
2022-09-06T15:46:21.251Z,52.70
2022-09-06T15:48:50.881Z,52.60
2022-09-06T15:51:19.929Z,52.30
2022-09-06T15:53:47.412Z,52.20
2022-09-06T15:56:16.753Z,52.30
2022-09-06T15:58:47.810Z,52.50
2022-09-06T16:01:18.202Z,53.60
2022-09-06T16:04:03.616Z,54.50
2022-09-06T16:06:44.249Z,54.90
2022-09-06T16:09:17.733Z,56.10
2022-09-06T16:11:45.269Z,57.00
2022-09-06T16:14:14.498Z,57.40
2022-09-06T16:16:43.395Z,57.40
2022-09-06T16:19:12.676Z,57.60
2022-09-06T16:21:42.109Z,57.60
2022-09-06T16:24:12.091Z,57.70
2022-09-06T16:26:42.394Z,58.10
2022-09-06T16:29:14.664Z,58.30
2022-09-06T16:31:42.063Z,59.10
2022-09-06T16:34:11.588Z,58.70
2022-09-06T16:36:39.358Z,59.00
2022-09-06T16:39:08.202Z,59.30
2022-09-06T16:41:44.158Z,59.60
2022-09-06T16:44:16.857Z,60.00
2022-09-06T16:46:46.675Z,60.20
2022-09-06T16:49:17.023Z,60.40
2022-09-06T16:51:45.112Z,60.70
2022-09-06T16:54:14.019Z,61.10
2022-09-06T16:56:41.754Z,61.40
2022-09-06T16:59:10.543Z,61.80
2022-09-06T17:01:42.498Z,62.00
2022-09-06T17:04:10.512Z,62.40
2022-09-06T17:06:56.105Z,62.80
2022-09-06T17:09:23.482Z,63.20
2022-09-06T17:11:50.950Z,63.50
2022-09-06T17:14:18.988Z,63.80
2022-09-06T17:17:04.741Z,64.10
2022-09-06T17:19:37.118Z,64.40
2022-09-06T17:22:05.254Z,64.70
2022-09-06T17:24:32.939Z,64.90
2022-09-06T17:27:00.287Z,65.00
2022-09-06T17:29:28.173Z,65.30
2022-09-06T17:31:56.048Z,65.40
2022-09-06T17:34:23.457Z,66.10
2022-09-06T17:36:50.866Z,65.50
2022-09-06T17:39:23.394Z,65.80
2022-09-06T17:41:53.551Z,66.00
2022-09-06T17:44:25.173Z,66.10
2022-09-06T17:49:41.694Z,66.30
2022-09-06T17:52:09.740Z,67.10
2022-09-06T17:54:37.186Z,66.40
2022-09-06T17:57:04.770Z,66.60
2022-09-06T17:59:35.448Z,66.70
2022-09-06T18:02:04.289Z,66.90
2022-09-06T18:04:31.659Z,67.00
2022-09-06T18:06:59.054Z,67.30
2022-09-06T18:09:26.721Z,67.40
2022-09-06T18:11:54.190Z,67.50
2022-09-06T18:14:21.553Z,67.70
2022-09-06T18:16:52.620Z,67.90
2022-09-06T18:19:21.364Z,68.10
2022-09-06T18:21:48.962Z,68.40
2022-09-06T18:24:16.441Z,68.40
2022-09-06T18:26:44.656Z,68.60
2022-09-06T18:29:18.079Z,69.00
2022-09-06T18:31:45.823Z,69.10
2022-09-06T18:34:13.656Z,69.10
2022-09-06T18:36:41.095Z,69.30
2022-09-06T18:39:08.692Z,69.50
2022-09-06T18:41:54.712Z,69.60
2022-09-06T18:44:22.393Z,69.60
2022-09-06T18:46:49.970Z,69.80
2022-09-06T18:49:17.597Z,70.60
2022-09-06T18:51:45.591Z,70.00
2022-09-06T18:54:13.589Z,70.30
2022-09-06T18:56:42.121Z,71.20
2022-09-06T18:59:11.130Z,70.80
2022-09-06T19:01:38.577Z,71.10
2022-09-06T19:04:07.196Z,71.20
2022-09-06T19:06:36.320Z,71.30
2022-09-06T19:09:10.073Z,71.60
2022-09-06T19:11:38.115Z,72.00
2022-09-06T19:14:05.820Z,72.20
2022-09-06T19:16:33.621Z,72.30
2022-09-06T19:19:03.327Z,72.50
2022-09-06T19:21:30.687Z,72.70
2022-09-06T19:24:01.237Z,72.80
2022-09-06T19:26:31.583Z,73.00
2022-09-06T19:29:02.119Z,73.10
2022-09-06T19:31:32.307Z,73.30
2022-09-06T19:33:59.978Z,73.60
2022-09-06T19:36:29.392Z,73.80
2022-09-06T19:39:03.428Z,74.00
2022-09-06T19:41:34.605Z,74.00
2022-09-06T19:44:05.371Z,74.10
2022-09-06T19:46:33.546Z,74.20
2022-09-06T19:49:02.319Z,74.40
2022-09-06T19:51:30.300Z,74.50
2022-09-06T19:53:58.049Z,74.80
2022-09-06T19:56:30.155Z,75.10
2022-09-06T19:58:59.547Z,75.10
2022-09-06T20:01:29.567Z,75.80
2022-09-06T20:03:58.799Z,75.30
2022-09-06T20:06:26.991Z,75.50
2022-09-06T20:08:56.459Z,75.70
2022-09-06T20:11:26.871Z,76.10
2022-09-06T20:13:54.758Z,76.60
2022-09-06T20:16:24.804Z,76.90
2022-09-06T20:18:55.772Z,77.20
2022-09-06T20:21:23.145Z,77.50
2022-09-06T20:23:52.103Z,78.00
2022-09-06T20:26:20.756Z,78.70
2022-09-06T20:28:48.794Z,79.00
2022-09-06T20:31:18.294Z,79.20
2022-09-06T20:33:49.684Z,79.50
2022-09-06T20:36:18.449Z,79.00
2022-09-06T20:38:47.267Z,79.20
2022-09-06T20:41:17.065Z,78.20
2022-09-06T20:43:44.868Z,78.30
2022-09-06T20:46:18.013Z,78.70
2022-09-06T20:48:46.697Z,79.30
2022-09-06T20:51:19.644Z,80.20
2022-09-06T20:53:50.989Z,81.10
2022-09-06T20:56:21.244Z,81.50
2022-09-06T20:58:54.282Z,81.70
2022-09-06T21:01:24.630Z,82.40
2022-09-06T21:03:53.927Z,81.70
2022-09-06T21:06:22.448Z,81.70
2022-09-06T21:08:50.690Z,81.70
2022-09-06T21:11:18.899Z,81.80
2022-09-06T21:13:51.054Z,81.10
2022-09-06T21:16:24.390Z,81.40
2022-09-06T21:18:58.304Z,81.40
2022-09-06T21:21:27.707Z,80.90
2022-09-06T21:23:55.399Z,81.20
2022-09-06T21:26:23.195Z,82.20
2022-09-06T21:28:50.739Z,81.90
2022-09-06T21:31:23.620Z,82.20
2022-09-06T21:33:56.330Z,82.60
2022-09-06T21:36:27.527Z,82.80
2022-09-06T21:38:57.146Z,83.20
2022-09-06T21:41:24.880Z,83.40
2022-09-06T21:43:53.874Z,83.60
2022-09-06T21:46:23.029Z,83.70
2022-09-06T21:48:52.826Z,83.70
2022-09-06T21:51:27.227Z,83.70
2022-09-06T21:53:55.955Z,83.60
2022-09-06T21:56:24.108Z,83.50
2022-09-06T21:58:55.421Z,84.40
2022-09-06T22:01:24.296Z,84.20
2022-09-06T22:03:52.007Z,84.40
2022-09-06T22:06:22.046Z,84.40
2022-09-06T22:08:49.695Z,84.70
2022-09-06T22:11:19.658Z,84.90
2022-09-06T22:13:48.267Z,85.20
2022-09-06T22:16:18.763Z,85.00
2022-09-06T22:18:46.921Z,84.90
2022-09-06T22:21:21.142Z,85.00
2022-09-06T22:23:55.528Z,85.20
2022-09-06T22:26:25.248Z,85.50
2022-09-06T22:28:55.327Z,85.70
2022-09-06T22:31:23.873Z,85.70
2022-09-06T22:33:51.385Z,85.50
2022-09-06T22:36:19.284Z,85.50
2022-09-06T22:38:46.718Z,85.90
2022-09-06T22:41:14.299Z,85.40
2022-09-06T22:43:41.554Z,85.80
2022-09-06T22:46:10.624Z,86.30
2022-09-06T22:48:38.442Z,86.50
2022-09-06T22:51:08.850Z,86.90
2022-09-06T22:53:36.202Z,87.40
2022-09-06T22:56:04.383Z,87.70
2022-09-06T22:58:32.772Z,87.90
2022-09-06T23:01:09.681Z,88.00
2022-09-06T23:03:37.914Z,88.20
2022-09-06T23:06:05.553Z,88.40
2022-09-06T23:08:35.491Z,88.70
2022-09-06T23:11:08.932Z,89.00
2022-09-06T23:13:36.955Z,89.30
2022-09-06T23:16:09.095Z,89.50
2022-09-06T23:18:36.478Z,89.60
2022-09-06T23:21:23.846Z,89.50
2022-09-06T23:23:52.738Z,89.80
2022-09-06T23:26:22.330Z,89.80
2022-09-06T23:28:51.823Z,89.70
2022-09-06T23:31:19.574Z,89.70
2022-09-06T23:33:46.968Z,89.90
2022-09-06T23:36:14.853Z,89.90
2022-09-06T23:38:43.194Z,90.00
2022-09-06T23:41:11.391Z,90.00
2022-09-06T23:43:40.589Z,90.10
2022-09-06T23:46:09.312Z,90.10
2022-09-06T23:48:36.782Z,90.10
2022-09-06T23:51:04.848Z,90.30
2022-09-06T23:53:32.902Z,90.20
2022-09-06T23:56:00.808Z,90.20
2022-09-06T23:58:28.564Z,90.20
